createdAt,value
2019-04-25T00:01:08.584Z,94629.64
2019-04-25T00:03:38.978Z,94632.19
2019-04-25T00:06:08.967Z,94635.34
2019-04-25T00:08:39.108Z,94639.59
2019-04-25T00:11:11.593Z,94631.48
2019-04-25T00:13:42.804Z,94627.63
2019-04-25T00:16:14.441Z,94637.36
2019-04-25T00:18:44.448Z,94630.96
2019-04-25T00:21:27.272Z,94640.28
2019-04-25T00:24:02.675Z,94638.50
2019-04-25T00:26:37.341Z,94641.38
2019-04-25T00:29:07.431Z,94644.49
2019-04-25T00:31:37.483Z,94645.78
2019-04-25T00:34:08.392Z,94638.30
2019-04-25T00:36:39.080Z,94649.16
2019-04-25T00:39:09.106Z,94658.58
2019-04-25T00:41:39.092Z,94657.86
2019-04-25T00:44:09.032Z,94661.70
2019-04-25T00:46:38.897Z,94664.99
2019-04-25T00:49:08.823Z,94656.30
2019-04-25T00:51:38.673Z,94663.86
2019-04-25T00:54:08.657Z,94668.79
2019-04-25T00:56:38.988Z,94658.21
2019-04-25T00:59:14.185Z,94653.22
2019-04-25T01:01:54.299Z,94655.72
2019-04-25T01:04:24.503Z,94654.09
2019-04-25T01:06:54.501Z,94652.69
2019-04-25T01:09:25.679Z,94647.44
2019-04-25T01:11:55.619Z,94659.62
2019-04-25T01:14:25.518Z,94660.13
2019-04-25T01:16:55.515Z,94653.50
2019-04-25T01:19:25.521Z,94655.91
2019-04-25T01:21:56.052Z,94633.72
2019-04-25T01:24:26.633Z,94629.61
2019-04-25T01:26:56.637Z,94628.89
2019-04-25T01:29:26.578Z,94633.94
2019-04-25T01:31:56.570Z,94632.86
2019-04-25T01:34:36.058Z,94629.22
2019-04-25T01:37:16.120Z,94635.17
2019-04-25T01:40:10.845Z,94631.09
2019-04-25T01:42:58.646Z,94633.23
2019-04-25T01:45:31.055Z,94627.80
2019-04-25T01:48:01.112Z,94630.80
2019-04-25T01:50:31.034Z,94627.87
2019-04-25T01:53:00.885Z,94629.79
2019-04-25T01:55:30.985Z,94626.09
2019-04-25T01:58:00.976Z,94628.92
2019-04-25T02:00:34.989Z,94633.41
2019-04-25T02:03:05.455Z,94624.41
2019-04-25T02:05:35.491Z,94628.61
2019-04-25T02:08:06.939Z,94622.67
2019-04-25T02:10:37.081Z,94624.00
2019-04-25T02:13:09.317Z,94633.34
2019-04-25T02:15:39.306Z,94634.76
2019-04-25T02:18:09.247Z,94637.55
2019-04-25T02:20:39.262Z,94625.66
2019-04-25T02:23:09.252Z,94623.74
2019-04-25T02:25:39.399Z,94628.59
2019-04-25T02:28:09.323Z,94627.67
2019-04-25T02:30:39.601Z,94628.37
2019-04-25T02:33:09.515Z,94624.02
2019-04-25T02:35:42.913Z,94630.52
2019-04-25T02:38:11.189Z,94630.80
2019-04-25T02:40:41.174Z,94638.69
2019-04-25T02:43:11.156Z,94641.37
2019-04-25T02:46:09.182Z,94638.59
2019-04-25T02:49:07.134Z,94638.08
2019-04-25T02:51:41.641Z,94632.67
2019-04-25T02:54:13.822Z,94636.46
2019-04-25T02:56:46.327Z,94630.30
2019-04-25T02:59:15.172Z,94628.44
2019-04-25T03:01:45.478Z,94623.69
2019-04-25T03:04:15.465Z,94628.37
2019-04-25T03:06:45.650Z,94620.87
2019-04-25T03:09:15.809Z,94621.74
2019-04-25T03:11:47.656Z,94625.28
2019-04-25T03:14:17.482Z,94628.17
2019-04-25T03:16:47.514Z,94624.58
2019-04-25T03:19:36.469Z,94623.90
2019-04-25T03:22:11.576Z,94620.52
2019-04-25T03:24:40.026Z,94623.09
2019-04-25T03:27:10.051Z,94618.89
2019-04-25T03:29:39.957Z,94616.88
2019-04-25T03:32:15.554Z,94613.59
2019-04-25T03:34:43.380Z,94624.52
2019-04-25T03:37:13.738Z,94630.01
2019-04-25T03:39:43.761Z,94626.58
2019-04-25T03:42:14.100Z,94625.95
2019-04-25T03:44:44.131Z,94627.66
2019-04-25T03:47:14.114Z,94626.15
2019-04-25T03:49:44.078Z,94624.17
2019-04-25T03:52:14.343Z,94630.45
2019-04-25T03:54:44.261Z,94628.95
2019-04-25T03:57:14.624Z,94632.28
2019-04-25T03:59:45.688Z,94639.00
2019-04-25T04:02:15.657Z,94631.28
2019-04-25T04:04:45.616Z,94631.72
2019-04-25T04:07:15.967Z,94631.80
2019-04-25T04:09:45.861Z,94636.29
2019-04-25T04:12:15.802Z,94637.22
2019-04-25T04:14:46.756Z,94640.30
2019-04-25T04:17:26.149Z,94639.61
2019-04-25T04:20:15.133Z,94636.67
2019-04-25T04:22:58.072Z,94643.61
2019-04-25T04:25:27.995Z,94645.51
2019-04-25T04:27:57.845Z,94641.65
2019-04-25T04:30:27.763Z,94640.75
2019-04-25T04:32:57.675Z,94645.52
2019-04-25T04:35:28.568Z,94648.59
2019-04-25T04:37:58.402Z,94642.98
2019-04-25T04:40:28.321Z,94649.58
2019-04-25T04:42:58.215Z,94646.66
2019-04-25T04:45:28.280Z,94649.25
2019-04-25T04:47:58.122Z,94647.14
2019-04-25T04:50:28.039Z,94639.05
2019-04-25T04:52:58.963Z,94635.16
2019-04-25T04:55:28.828Z,94634.47
2019-04-25T04:58:01.305Z,94637.66
2019-04-25T05:00:30.278Z,94649.35
2019-04-25T05:03:15.810Z,94644.09
2019-04-25T05:06:00.513Z,94650.92
2019-04-25T05:08:36.131Z,94653.31
2019-04-25T05:11:05.951Z,94661.78
2019-04-25T05:13:35.871Z,94663.30
2019-04-25T05:16:06.860Z,94657.76
2019-04-25T05:18:39.941Z,94658.56
2019-04-25T05:21:08.474Z,94664.55
2019-04-25T05:23:38.377Z,94670.53
2019-04-25T05:26:08.363Z,94668.09
2019-04-25T05:28:38.334Z,94668.84
2019-04-25T05:31:18.045Z,94653.92
2019-04-25T05:33:49.192Z,94653.19
2019-04-25T05:36:19.640Z,94659.97
2019-04-25T05:38:49.718Z,94662.59
2019-04-25T05:41:33.747Z,94662.73
2019-04-25T05:44:04.528Z,94656.45
2019-04-25T05:46:34.653Z,94654.84
2019-04-25T05:49:05.205Z,94646.83
2019-04-25T05:51:36.278Z,94652.59
2019-04-25T05:54:06.402Z,94652.55
2019-04-25T05:56:36.231Z,94653.75
2019-04-25T05:59:06.211Z,94655.48
2019-04-25T06:01:36.128Z,94651.40
2019-04-25T06:04:06.120Z,94661.34
2019-04-25T06:06:36.837Z,94652.82
2019-04-25T06:09:26.378Z,94662.08
2019-04-25T06:12:21.710Z,94663.77
2019-04-25T06:14:52.914Z,94652.20
2019-04-25T06:17:32.188Z,94648.83
2019-04-25T06:20:06.249Z,94654.64
2019-04-25T06:23:04.344Z,94651.27
2019-04-25T06:25:39.455Z,94652.71
2019-04-25T06:28:08.395Z,94646.86
2019-04-25T06:30:38.465Z,94647.85
2019-04-25T06:33:08.290Z,94650.27
2019-04-25T06:35:38.273Z,94653.52
2019-04-25T06:38:08.185Z,94649.13
2019-04-25T06:40:38.349Z,94644.83
2019-04-25T06:43:08.352Z,94645.25
2019-04-25T06:46:06.624Z,94649.41
2019-04-25T06:48:43.377Z,94645.13
2019-04-25T06:51:14.629Z,94644.56
2019-04-25T06:53:44.629Z,94645.41
2019-04-25T06:56:14.659Z,94644.49
2019-04-25T06:58:44.658Z,94642.95
2019-04-25T07:01:14.567Z,94649.52
2019-04-25T07:03:45.661Z,94642.23
2019-04-25T07:06:15.525Z,94643.81
2019-04-25T07:08:45.455Z,94641.19
2019-04-25T07:11:15.439Z,94633.80
2019-04-25T07:13:46.440Z,94640.60
2019-04-25T07:16:16.350Z,94629.53
2019-04-25T07:18:46.339Z,94627.44
2019-04-25T07:21:16.191Z,94625.97
2019-04-25T07:23:46.448Z,94628.88
2019-04-25T07:26:26.881Z,94619.87
2019-04-25T07:29:05.376Z,94627.01
2019-04-25T07:31:44.275Z,94623.93
2019-04-25T07:34:17.820Z,94614.07
2019-04-25T07:36:47.806Z,94620.16
2019-04-25T07:39:18.012Z,94623.75
2019-04-25T07:41:48.089Z,94619.89
2019-04-25T07:44:20.838Z,94620.23
2019-04-25T07:46:49.861Z,94612.75
2019-04-25T07:49:19.892Z,94616.42
2019-04-25T07:51:49.747Z,94617.17
2019-04-25T07:54:19.748Z,94615.40
2019-04-25T07:56:49.728Z,94612.84
2019-04-25T07:59:19.707Z,94607.64
2019-04-25T08:01:49.617Z,94609.20
2019-04-25T08:04:19.530Z,94606.83
2019-04-25T08:06:49.455Z,94602.39
2019-04-25T08:09:19.628Z,94603.41
2019-04-25T08:11:49.590Z,94603.89
2019-04-25T08:14:28.546Z,94592.90
2019-04-25T08:17:00.973Z,94605.30
2019-04-25T08:19:31.109Z,94604.18
2019-04-25T08:22:03.552Z,94603.67
2019-04-25T08:24:35.915Z,94596.58
2019-04-25T08:27:06.124Z,94595.92
2019-04-25T08:29:39.104Z,94590.77
2019-04-25T08:32:07.925Z,94601.33
2019-04-25T08:34:38.606Z,94597.12
2019-04-25T08:37:17.929Z,94591.98
2019-04-25T08:39:40.389Z,94589.09
2019-04-25T08:42:10.297Z,94589.16
2019-04-25T08:44:40.227Z,94582.72
2019-04-25T08:47:11.052Z,94588.76
2019-04-25T08:49:51.556Z,94582.49
2019-04-25T08:52:21.435Z,94585.12
2019-04-25T08:55:08.477Z,94587.41
2019-04-25T08:58:05.359Z,94579.28
2019-04-25T09:01:00.903Z,94576.09
2019-04-25T09:03:29.311Z,94580.73
2019-04-25T09:05:59.406Z,94578.11
2019-04-25T09:08:29.405Z,94568.16
2019-04-25T09:10:59.444Z,94564.66
2019-04-25T09:13:29.355Z,94575.52
2019-04-25T09:16:00.413Z,94568.16
2019-04-25T09:18:30.338Z,94572.25
2019-04-25T09:21:00.321Z,94565.09
2019-04-25T09:23:30.268Z,94567.52
2019-04-25T09:26:00.272Z,94570.78
2019-04-25T09:28:30.104Z,94563.47
2019-04-25T09:31:00.033Z,94570.11
2019-04-25T09:33:30.074Z,94559.52
2019-04-25T09:36:00.063Z,94565.48
2019-04-25T09:38:30.045Z,94562.34
2019-04-25T09:40:59.914Z,94564.77
2019-04-25T09:43:29.921Z,94563.87
2019-04-25T09:46:10.371Z,94558.19
2019-04-25T09:48:50.096Z,94551.73
2019-04-25T09:51:33.599Z,94561.39
2019-04-25T09:54:23.765Z,94559.39
2019-04-25T09:56:57.319Z,94559.83
2019-04-25T09:59:30.009Z,94564.06
2019-04-25T10:01:58.977Z,94554.42
2019-04-25T10:04:28.823Z,94558.48
2019-04-25T10:06:58.826Z,94547.78
2019-04-25T10:09:29.121Z,94542.90
2019-04-25T10:11:59.186Z,94546.02
2019-04-25T10:14:54.577Z,94541.82
2019-04-25T10:17:25.495Z,94541.25
2019-04-25T10:19:55.462Z,94539.20
2019-04-25T10:22:25.367Z,94532.36
2019-04-25T10:25:00.347Z,94531.28
2019-04-25T10:27:27.041Z,94533.31
2019-04-25T10:29:57.877Z,94524.96
2019-04-25T10:32:27.858Z,94519.73
2019-04-25T10:34:57.871Z,94516.55
2019-04-25T10:37:27.881Z,94511.35
2019-04-25T10:39:57.875Z,94508.02
2019-04-25T10:42:28.068Z,94507.22
2019-04-25T10:44:57.981Z,94511.27
2019-04-25T10:47:28.691Z,94510.76
2019-04-25T10:49:59.231Z,94510.80
2019-04-25T10:52:29.391Z,94501.72
2019-04-25T10:54:59.376Z,94496.78
2019-04-25T10:57:29.571Z,94496.25
2019-04-25T11:00:06.146Z,94502.05
2019-04-25T11:02:33.920Z,94503.20
2019-04-25T11:05:10.030Z,94494.31
2019-04-25T11:07:40.659Z,94498.27
2019-04-25T11:10:11.168Z,94491.33
2019-04-25T11:12:42.297Z,94491.33
2019-04-25T11:15:14.307Z,94486.16
2019-04-25T11:17:45.762Z,94484.69
2019-04-25T11:20:27.023Z,94486.62
2019-04-25T11:22:57.115Z,94485.02
2019-04-25T11:25:27.107Z,94492.40
2019-04-25T11:27:57.152Z,94486.89
2019-04-25T11:30:29.279Z,94486.17
2019-04-25T11:33:00.053Z,94489.94
2019-04-25T11:35:30.051Z,94477.75
2019-04-25T11:38:03.524Z,94459.66
2019-04-25T11:40:39.017Z,94470.38
2019-04-25T11:43:09.110Z,94469.98
2019-04-25T11:45:39.723Z,94468.39
2019-04-25T11:48:09.620Z,94468.56
2019-04-25T11:50:39.623Z,94482.42
2019-04-25T11:53:09.744Z,94469.73
2019-04-25T11:55:39.776Z,94472.11
2019-04-25T11:58:09.775Z,94473.37
2019-04-25T12:00:39.832Z,94485.77
2019-04-25T12:03:09.777Z,94478.80
2019-04-25T12:05:39.754Z,94470.05
2019-04-25T12:08:09.952Z,94477.03
2019-04-25T12:10:40.222Z,94480.97
2019-04-25T12:13:10.067Z,94482.70
2019-04-25T12:15:40.049Z,94481.58
2019-04-25T12:18:09.965Z,94482.84
2019-04-25T12:20:40.336Z,94488.19
2019-04-25T12:23:10.695Z,94488.03
2019-04-25T12:25:40.593Z,94484.78
2019-04-25T12:28:10.543Z,94489.95
2019-04-25T12:30:40.627Z,94481.14
2019-04-25T12:33:19.168Z,94491.81
2019-04-25T12:35:43.661Z,94491.24
2019-04-25T12:38:14.177Z,94484.38
2019-04-25T12:40:44.256Z,94478.02
2019-04-25T12:43:14.320Z,94478.64
2019-04-25T12:46:08.639Z,94467.77
2019-04-25T12:48:38.584Z,94461.41
2019-04-25T12:51:08.579Z,94475.49
2019-04-25T12:53:38.628Z,94475.86
2019-04-25T12:56:08.520Z,94472.06
2019-04-25T12:58:38.648Z,94467.30
2019-04-25T13:01:09.249Z,94459.92
2019-04-25T13:03:39.251Z,94461.66
2019-04-25T13:06:09.243Z,94459.92
2019-04-25T13:08:39.438Z,94474.73
2019-04-25T13:11:10.526Z,94470.79
2019-04-25T13:13:40.488Z,94459.92
2019-04-25T13:16:10.662Z,94463.96
2019-04-25T13:18:40.580Z,94452.28
2019-04-25T13:21:10.486Z,94451.60
2019-04-25T13:23:40.571Z,94454.77
2019-04-25T13:26:10.929Z,94456.41
2019-04-25T13:29:07.603Z,94459.55
2019-04-25T13:31:53.221Z,94456.38
2019-04-25T13:34:36.042Z,94452.18
2019-04-25T13:36:58.774Z,94448.15
2019-04-25T13:39:28.878Z,94455.65
2019-04-25T13:42:00.968Z,94458.41
2019-04-25T13:44:30.485Z,94462.21
2019-04-25T13:47:01.376Z,94453.48
2019-04-25T13:49:31.631Z,94452.77
2019-04-25T13:52:01.632Z,94444.03
2019-04-25T13:54:33.418Z,94449.59
2019-04-25T13:57:03.401Z,94447.58
2019-04-25T13:59:33.333Z,94439.58
2019-04-25T14:02:05.552Z,94437.62
2019-04-25T14:04:35.784Z,94437.09
2019-04-25T14:07:06.649Z,94431.55
2019-04-25T14:09:36.602Z,94437.59
2019-04-25T14:12:06.591Z,94445.95
2019-04-25T14:14:36.592Z,94443.02
2019-04-25T14:17:25.710Z,94434.97
2019-04-25T14:20:20.842Z,94426.97
2019-04-25T14:22:53.653Z,94425.13
2019-04-25T14:25:26.899Z,94427.80
2019-04-25T14:27:55.292Z,94430.70
2019-04-25T14:30:28.393Z,94432.03
2019-04-25T14:32:58.231Z,94427.45
2019-04-25T14:35:29.058Z,94438.67
2019-04-25T14:37:58.996Z,94430.34
2019-04-25T14:40:28.933Z,94431.48
2019-04-25T14:42:58.781Z,94425.23
2019-04-25T14:45:42.424Z,94411.78
2019-04-25T14:48:00.416Z,94415.40
2019-04-25T14:50:30.409Z,94420.12
2019-04-25T14:53:00.245Z,94412.95
2019-04-25T14:56:07.507Z,94405.66
2019-04-25T14:58:38.447Z,94414.58
2019-04-25T15:01:08.626Z,94415.47
2019-04-25T15:03:38.554Z,94418.67
2019-04-25T15:06:08.494Z,94416.53
2019-04-25T15:08:38.423Z,94412.20
2019-04-25T15:11:08.418Z,94410.29
2019-04-25T15:13:38.468Z,94414.39
2019-04-25T15:16:08.614Z,94423.05
2019-04-25T15:18:46.501Z,94413.34
2019-04-25T15:21:11.347Z,94412.50
2019-04-25T15:23:41.336Z,94415.69
2019-04-25T15:26:11.383Z,94408.09
2019-04-25T15:28:41.379Z,94399.02
2019-04-25T15:31:11.471Z,94398.94
2019-04-25T15:33:41.571Z,94401.44
2019-04-25T15:36:17.531Z,94395.23
2019-04-25T15:38:55.160Z,94400.38
2019-04-25T15:41:40.049Z,94392.06
2019-04-25T15:44:36.941Z,94386.32
2019-04-25T15:47:08.979Z,94392.62
2019-04-25T15:49:38.953Z,94385.36
2019-04-25T15:52:09.619Z,94384.70
2019-04-25T15:54:39.545Z,94379.75
2019-04-25T15:57:09.657Z,94389.10
2019-04-25T15:59:39.661Z,94384.49
2019-04-25T16:02:11.663Z,94376.59
2019-04-25T16:04:41.573Z,94389.00
2019-04-25T16:07:12.644Z,94383.37
2019-04-25T16:09:42.652Z,94393.36
2019-04-25T16:12:13.449Z,94386.05
2019-04-25T16:14:44.261Z,94386.06
2019-04-25T16:17:16.401Z,94380.00
2019-04-25T16:19:45.948Z,94364.84
2019-04-25T16:22:15.841Z,94380.28
2019-04-25T16:24:45.771Z,94375.91
2019-04-25T16:27:16.636Z,94380.02
2019-04-25T16:29:46.670Z,94377.25
2019-04-25T16:32:21.168Z,94378.69
2019-04-25T16:34:51.250Z,94374.18
2019-04-25T16:37:21.358Z,94378.80
2019-04-25T16:39:51.284Z,94372.23
2019-04-25T16:42:21.222Z,94375.06
2019-04-25T16:44:51.203Z,94381.73
2019-04-25T16:47:23.222Z,94387.00
2019-04-25T16:49:53.214Z,94378.70
2019-04-25T16:52:23.698Z,94374.95
2019-04-25T16:54:53.688Z,94374.05
2019-04-25T16:57:23.715Z,94375.56
2019-04-25T16:59:53.622Z,94367.67
2019-04-25T17:02:33.035Z,94376.06
2019-04-25T17:04:57.497Z,94376.73
2019-04-25T17:07:27.733Z,94380.25
2019-04-25T17:09:57.678Z,94370.83
2019-04-25T17:12:27.705Z,94372.98
2019-04-25T17:15:15.612Z,94365.31
2019-04-25T17:18:03.488Z,94365.71
2019-04-25T17:20:36.855Z,94372.19
2019-04-25T17:23:07.154Z,94369.73
2019-04-25T17:25:37.316Z,94376.02
2019-04-25T17:28:07.629Z,94372.62
2019-04-25T17:30:39.277Z,94371.27
2019-04-25T17:33:15.360Z,94371.75
2019-04-25T17:36:01.295Z,94369.50
2019-04-25T17:38:47.221Z,94372.72
2019-04-25T17:41:17.260Z,94375.39
2019-04-25T17:43:47.251Z,94381.80
2019-04-25T17:46:19.021Z,94378.20
2019-04-25T17:48:48.940Z,94375.63
2019-04-25T17:51:18.862Z,94376.94
2019-04-25T17:53:48.695Z,94383.28
2019-04-25T17:56:19.842Z,94369.65
2019-04-25T17:58:49.841Z,94379.87
2019-04-25T18:01:23.646Z,94377.06
2019-04-25T18:03:53.755Z,94367.30
2019-04-25T18:06:23.749Z,94372.45
2019-04-25T18:08:53.602Z,94374.64
2019-04-25T18:11:23.437Z,94368.32
2019-04-25T18:13:53.448Z,94369.00
2019-04-25T18:16:40.232Z,94371.98
2019-04-25T18:19:17.699Z,94369.28
2019-04-25T18:21:47.661Z,94377.76
2019-04-25T18:24:36.605Z,94370.32
2019-04-25T18:27:16.139Z,94371.70
2019-04-25T18:29:46.336Z,94374.91
2019-04-25T18:32:16.354Z,94378.92
2019-04-25T18:34:52.777Z,94366.36
2019-04-25T18:37:42.742Z,94362.34
2019-04-25T18:40:41.765Z,94361.60
2019-04-25T18:43:24.699Z,94367.35
2019-04-25T18:45:58.866Z,94374.44
2019-04-25T18:48:29.697Z,94378.48
2019-04-25T18:50:59.675Z,94373.58
2019-04-25T18:53:57.341Z,94382.03
2019-04-25T18:56:52.060Z,94382.56
2019-04-25T18:59:44.127Z,94390.79
2019-04-25T19:02:33.918Z,94391.28
2019-04-25T19:05:32.063Z,94385.59
2019-04-25T19:08:02.199Z,94397.12
2019-04-25T19:10:32.114Z,94396.18
2019-04-25T19:13:12.427Z,94396.70
2019-04-25T19:15:33.744Z,94389.44
2019-04-25T19:18:03.750Z,94395.77
2019-04-25T19:20:33.687Z,94401.51
2019-04-25T19:23:03.698Z,94392.21
2019-04-25T19:25:33.669Z,94399.78
2019-04-25T19:28:03.654Z,94404.95
2019-04-25T19:30:33.601Z,94391.71
2019-04-25T19:33:03.576Z,94395.14
2019-04-25T19:35:35.345Z,94401.24
2019-04-25T19:38:08.518Z,94404.66
2019-04-25T19:41:06.732Z,94257.65
2019-04-25T19:44:13.874Z,94409.87
2019-04-25T19:46:47.078Z,94418.01
2019-04-25T19:49:17.072Z,94415.05
2019-04-25T19:51:47.276Z,94412.89
2019-04-25T19:54:17.312Z,94418.91
2019-04-25T19:56:47.456Z,94418.91
2019-04-25T19:59:17.532Z,94425.05
2019-04-25T20:01:48.317Z,94418.55
2019-04-25T20:04:33.888Z,94416.46
2019-04-25T20:07:31.867Z,94427.25
2019-04-25T20:10:08.222Z,94410.84
2019-04-25T20:12:42.904Z,94427.84
2019-04-25T20:15:14.381Z,94419.50
2019-04-25T20:17:44.854Z,94422.94
2019-04-25T20:20:16.565Z,94431.58
2019-04-25T20:22:46.463Z,94430.33
2019-04-25T20:25:16.571Z,94432.75
2019-04-25T20:27:46.745Z,94439.56
2019-04-25T20:30:17.056Z,94440.62
2019-04-25T20:32:47.365Z,94440.62
2019-04-25T20:35:17.333Z,94441.68
2019-04-25T20:37:47.508Z,94440.65
2019-04-25T20:40:17.577Z,94432.89
2019-04-25T20:42:48.049Z,94438.96
2019-04-25T20:45:18.931Z,94435.06
2019-04-25T20:47:48.803Z,94436.63
2019-04-25T20:50:18.700Z,94440.25
2019-04-25T20:52:50.587Z,94431.97
2019-04-25T20:55:20.883Z,94426.58
2019-04-25T20:57:51.242Z,94433.33
2019-04-25T21:00:40.092Z,94437.47
2019-04-25T21:03:10.668Z,94434.89
2019-04-25T21:05:41.068Z,94435.95
2019-04-25T21:08:10.977Z,94441.67
2019-04-25T21:10:40.910Z,94435.69
2019-04-25T21:13:14.639Z,94428.93
2019-04-25T21:16:00.032Z,94433.88
2019-04-25T21:18:34.635Z,94420.63
2019-04-25T21:21:04.623Z,94415.77
2019-04-25T21:23:34.561Z,94418.12
2019-04-25T21:26:04.562Z,94412.98
2019-04-25T21:28:34.624Z,94421.30
2019-04-25T21:31:04.748Z,94417.14
2019-04-25T21:33:34.751Z,94417.66
2019-04-25T21:36:05.195Z,94407.72
2019-04-25T21:38:35.404Z,94417.56
2019-04-25T21:41:16.678Z,94410.53
2019-04-25T21:43:54.191Z,94414.45
2019-04-25T21:46:24.375Z,94420.17
2019-04-25T21:48:54.777Z,94419.66
2019-04-25T21:51:33.940Z,94414.44
2019-04-25T21:54:04.234Z,94415.77
2019-04-25T21:56:34.417Z,94408.50
2019-04-25T21:59:04.576Z,94410.34
2019-04-25T22:01:38.315Z,94420.77
2019-04-25T22:04:08.404Z,94423.38
2019-04-25T22:06:38.733Z,94421.52
2019-04-25T22:09:12.652Z,94425.19
2019-04-25T22:11:42.659Z,94418.19
2019-04-25T22:14:13.031Z,94419.23
2019-04-25T22:16:43.423Z,94418.71
2019-04-25T22:19:13.631Z,94419.24
2019-04-25T22:21:43.894Z,94417.46
2019-04-25T22:24:15.990Z,94410.19
2019-04-25T22:26:48.047Z,94415.39
2019-04-25T22:29:17.985Z,94414.84
2019-04-25T22:32:03.831Z,94403.42
2019-04-25T22:34:51.643Z,94400.83
2019-04-25T22:37:14.562Z,94407.06
2019-04-25T22:39:44.754Z,94411.73
2019-04-25T22:42:16.411Z,94407.09
2019-04-25T22:44:46.319Z,94403.98
2019-04-25T22:47:17.714Z,94406.84
2019-04-25T22:49:47.724Z,94406.31
2019-04-25T22:52:17.903Z,94401.13
2019-04-25T22:54:47.834Z,94403.72
2019-04-25T22:57:18.483Z,94408.66
2019-04-25T22:59:48.713Z,94399.05
2019-04-25T23:02:37.004Z,94397.75
2019-04-25T23:05:16.357Z,94401.64
2019-04-25T23:07:46.190Z,94396.45
2019-04-25T23:10:16.663Z,94390.48
2019-04-25T23:12:46.623Z,94390.48
2019-04-25T23:15:16.857Z,94392.03
2019-04-25T23:17:46.683Z,94392.30
2019-04-25T23:20:17.019Z,94385.50
2019-04-25T23:22:47.002Z,94394.84
2019-04-25T23:25:19.818Z,94386.80
2019-04-25T23:28:14.001Z,94394.59
2019-04-25T23:31:01.082Z,94395.11
2019-04-25T23:33:31.112Z,94380.87
2019-04-25T23:36:01.480Z,94394.11
2019-04-25T23:38:31.452Z,94394.62
2019-04-25T23:41:03.306Z,94387.61
2019-04-25T23:43:33.215Z,94387.88
2019-04-25T23:46:03.222Z,94380.61
2019-04-25T23:48:33.764Z,94394.89
2019-04-25T23:51:03.694Z,94391.52
2019-04-25T23:53:33.675Z,94382.43
2019-04-25T23:56:03.693Z,94384.02
2019-04-25T23:58:33.545Z,94387.66
